This is the latest recevied weather packets stored in our database for station/object OE-11204. If no packets are shown the sender has not sent any weather packets the latest 10 day(s).
| Time | Temp. | Humidity | Pressure | Rain* | Wind** | Luminosity | Snow |
|---|---|---|---|---|---|---|---|
| 1787780115 | 19.44° C | 80% | 1017.5 hPa | 0 mm | - | 0 W/m² | - |
| 1787779514 | 20° C | 79% | 1017.3 hPa | 0 mm | - | 0 W/m² | - |
| 1787778688 | 20° C | 78% | 1017.2 hPa | 0 mm | - | 0 W/m² | - |
| 1787778321 | 20° C | 78% | 1017 hPa | 0 mm | - | 0 W/m² | - |
| 1787777715 | 20.56° C | 76% | 1016.8 hPa | 0 mm | - | 0 W/m² | - |
| 1787776888 | 20° C | 79% | 1016.9 hPa | 0 mm | - | 0 W/m² | - |
| 1787776515 | 20° C | 78% | 1016.6 hPa | 0 mm | - | 0 W/m² | - |
| 1787775915 | 20.56° C | 75% | 1016.4 hPa | 0 mm | - | 0 W/m² | - |
| 1787775089 | 21.11° C | 73% | 1016.3 hPa | 0 mm | - | 0 W/m² | - |
| 1787774715 | 21.11° C | 72% | 1016.3 hPa | 0 mm | - | 0 W/m² | - |
| 1787774115 | 21.67° C | 71% | 1016.2 hPa | 0 mm | - | 0 W/m² | - |
| 1787773288 | 21.11° C | 72% | 1016.3 hPa | 0 mm | - | 0 W/m² | - |
| 1787772915 | 21.11° C | 73% | 1016.3 hPa | 0 mm | - | 0 W/m² | - |
| 1787772315 | 21.67° C | 70% | 1015.8 hPa | 0 mm | - | 0 W/m² | - |
| 1787771488 | 21.67° C | 69% | 1015.6 hPa | 0 mm | - | 0 W/m² | - |
| 1787771115 | 22.22° C | 70% | 1015.4 hPa | 0 mm | - | 0 W/m² | - |
| 1787770515 | 22.78° C | 66% | 1015.2 hPa | 0 mm | - | 0 W/m² | - |
| 1787769688 | 22.78° C | 64% | 1014.8 hPa | 0 mm | - | 0 W/m² | - |
| 1787769315 | 23.89° C | 59% | 1014.5 hPa | 0 mm | - | 0 W/m² | - |
| 1787768715 | 23.89° C | 59% | 1014.2 hPa | 0 mm | - | 0 W/m² | - |
| 1787767889 | 24.44° C | 56% | 1014.1 hPa | 0 mm | - | 6 W/m² | - |
| 1787767515 | 24.44° C | 56% | 1013.9 hPa | 0 mm | - | 6 W/m² | - |
| 1787766915 | 25° C | 54% | 1013.7 hPa | 0 mm | - | 12 W/m² | - |
| 1787766088 | 25° C | 54% | 1013.7 hPa | 0 mm | - | 25 W/m² | - |
| 1787765715 | 25° C | 56% | 1013.6 hPa | 0 mm | - | 37 W/m² | - |
* Rain latest hour (hover to see other rain measurements)
** Current wind speed in m/s (hover to see current wind gust speed)